Airfield :
LOGIN :

Register | Disclaimer

   EN    FR    IT 

 










Legend :    VFR   Marginal VFR   IFR   Intensive IFR   Very Intensive IFR
Visi :
Ceiling :
>= 8 km
>= 3000ft
5 to 8 km
1000 to 3000 ft
1500m to 5 km
500 to 1000 ft
800 to 1500m
200 to 500 ft
< 800m
< 200 ft
Symbols :   Thunderstorms  Fog  Heavy snow  Heavy precipitations  Wind > 20 kt
SIGMETs :     Misc.  Thunderstorms  Icing  Turbulence  Mountain Waves  Volcanic Ashes







- Airport Elevation : 124 ft
- IATA code : AVN
- Download approach charts


LFMV - Avignon Caumont

CURRENT METAR :
  • 110000Z AUTO 33017KT CAVOK 08/02 Q1023

EXPIRED METARs :
  • 102330Z AUTO 32013KT CAVOK 08/02 Q1024
  • 102300Z AUTO 31012KT CAVOK 08/02 Q1024
  • 102230Z AUTO 32012KT 290V350 CAVOK 08/02 Q1024
  • 102200Z AUTO 32011KT CAVOK 08/02 Q1024
  • 102130Z AUTO 33012KT CAVOK 08/02 Q1024

TAF TAF LFMV
Valid from the 10 at 15:00 until the 11 at 15:00 UTC


101400Z 1015/1115 35020KT CAVOK
TEMPO 1100/1114 35020G35KT
ATIS : +33 4 90 84 32 84
No reported NOTAMs for that airfield.
2 SIGMETs reported for the Marseille FIR (LFMM) :
 
Severe turbulence
LFMM SIGMET 16 VALID 110100/110500 LFPW
LFMM MARSEILLE FIR/UIR SEV TURB FCST WI N4445 E00515 - N4330 E00530 - N4215 E00645 - N4145 E00545 - N4245 E00445 - N4445 E00445 - N4445 E00515 SFC/FL060 STNR WKN=
Severe turbulence
LFMM SIGMET 15 VALID 102200/110100 LFPW
LFMM MARSEILLE FIR/UIR SEV TURB FCST WI N4445 E00515 - N4330 E00530 - N4215 E00645 - N4145 E00545 - N4245 E00445 - N4445 E00445 - N4445 E00515 SFC/FL060 STNR NC=



MET'MAP, your aeronautical weather chart ! - Copyright ORBIFLY December 2007 - Disclaimer

ORBIFLY MET'MAP TEAM :

Programming & Development : Alexandra Zaïnal
Concept & Development : Baudouin d'Aumeries
Co-Development & Prog : Marc-Olivier Méhu
Technical & hardware support : Manuel Goepfert

Contact : metmap@orbifly.com




SOURCES & CREDITS :

   NOAA